createdAt,value
2018-08-03T00:00:48.410Z,99.90
2018-08-03T00:03:16.515Z,99.90
2018-08-03T00:05:44.894Z,99.90
2018-08-03T00:08:13.173Z,99.90
2018-08-03T00:10:41.496Z,99.90
2018-08-03T00:13:09.782Z,99.90
2018-08-03T00:15:38.005Z,99.90
2018-08-03T00:18:06.210Z,99.90
2018-08-03T00:20:34.420Z,99.90
2018-08-03T00:23:02.618Z,99.90
2018-08-03T00:25:30.801Z,99.90
2018-08-03T00:27:58.974Z,99.90
2018-08-03T00:30:27.220Z,99.90
2018-08-03T00:32:55.432Z,99.90
2018-08-03T00:35:23.648Z,99.90
2018-08-03T00:37:52.745Z,99.90
2018-08-03T00:40:21.345Z,99.90
2018-08-03T00:42:49.601Z,99.90
2018-08-03T00:45:17.807Z,99.90
2018-08-03T00:47:46.021Z,99.90
2018-08-03T00:50:14.240Z,99.90
2018-08-03T00:52:42.426Z,99.90
2018-08-03T00:55:10.637Z,99.90
2018-08-03T00:57:38.792Z,99.90
2018-08-03T01:00:06.995Z,99.90
2018-08-03T01:02:35.231Z,99.90
2018-08-03T01:05:03.687Z,99.90
2018-08-03T01:07:31.885Z,99.90
2018-08-03T01:10:00.093Z,99.90
2018-08-03T01:12:28.310Z,99.90
2018-08-03T01:14:56.561Z,99.90
2018-08-03T01:17:24.798Z,99.90
2018-08-03T01:19:53.017Z,99.90
2018-08-03T01:22:21.677Z,99.90
2018-08-03T01:24:50.008Z,99.90
2018-08-03T01:27:18.326Z,99.90
2018-08-03T01:29:46.515Z,99.90
2018-08-03T01:32:14.762Z,99.90
2018-08-03T01:34:42.996Z,99.90
2018-08-03T01:37:11.186Z,99.90
2018-08-03T01:39:40.098Z,99.90
2018-08-03T01:42:08.307Z,99.90
2018-08-03T01:44:36.965Z,99.90
2018-08-03T01:47:05.206Z,99.90
2018-08-03T01:49:33.415Z,99.90
2018-08-03T01:52:01.598Z,99.90
2018-08-03T01:54:31.583Z,99.90
2018-08-03T01:56:59.770Z,99.90
2018-08-03T01:59:28.001Z,99.90
2018-08-03T02:01:56.311Z,99.90
2018-08-03T02:04:24.534Z,99.90
2018-08-03T02:06:52.756Z,99.90
2018-08-03T02:09:20.978Z,99.90
2018-08-03T02:11:49.859Z,99.90
2018-08-03T02:14:18.110Z,99.90
2018-08-03T02:16:47.100Z,99.90
2018-08-03T02:19:15.467Z,99.90
2018-08-03T02:21:43.673Z,99.90
2018-08-03T02:24:11.932Z,99.90
2018-08-03T02:26:40.201Z,99.90
2018-08-03T02:29:08.396Z,99.90
2018-08-03T02:31:37.470Z,99.90
2018-08-03T02:34:05.936Z,99.90
2018-08-03T02:36:34.178Z,99.90
2018-08-03T02:39:02.405Z,99.90
2018-08-03T02:41:31.364Z,99.90
2018-08-03T02:44:00.054Z,99.90
2018-08-03T02:46:28.666Z,99.90
2018-08-03T02:48:56.907Z,99.90
2018-08-03T02:51:25.094Z,99.90
2018-08-03T02:53:53.338Z,99.90
2018-08-03T02:56:21.586Z,99.90
2018-08-03T02:58:49.838Z,99.90
2018-08-03T03:01:18.001Z,99.90
2018-08-03T03:03:46.237Z,99.90
2018-08-03T03:06:14.478Z,99.90
2018-08-03T03:08:42.707Z,99.90
2018-08-03T03:11:10.903Z,99.90
2018-08-03T03:13:39.143Z,99.90
2018-08-03T03:16:07.366Z,99.90
2018-08-03T03:18:35.578Z,99.90
2018-08-03T03:21:03.795Z,99.90
2018-08-03T03:23:31.999Z,99.90
2018-08-03T03:26:00.208Z,99.90
2018-08-03T03:28:28.422Z,99.90
2018-08-03T03:30:56.651Z,99.90
2018-08-03T03:33:24.899Z,99.90
2018-08-03T03:35:53.481Z,99.90
2018-08-03T03:38:21.685Z,99.90
2018-08-03T03:40:49.940Z,99.90
2018-08-03T03:43:18.175Z,99.90
2018-08-03T03:45:46.719Z,99.90
2018-08-03T03:48:14.907Z,99.90
2018-08-03T03:50:43.521Z,99.90
2018-08-03T03:53:12.257Z,99.90
2018-08-03T03:55:40.524Z,99.90
2018-08-03T03:58:08.757Z,99.90
2018-08-03T04:00:36.998Z,99.90
2018-08-03T04:03:05.265Z,99.90
2018-08-03T04:05:33.429Z,99.90
2018-08-03T04:08:01.632Z,99.90
2018-08-03T04:10:29.879Z,99.90
2018-08-03T04:12:58.161Z,99.90
2018-08-03T04:15:26.321Z,99.90
2018-08-03T04:17:54.518Z,99.90
2018-08-03T04:20:22.764Z,99.90
2018-08-03T04:22:50.943Z,99.90
2018-08-03T04:25:19.146Z,99.90
2018-08-03T04:27:47.391Z,99.90
2018-08-03T04:30:15.537Z,99.90
2018-08-03T04:32:43.741Z,99.90
2018-08-03T04:35:12.013Z,99.90
2018-08-03T04:37:40.226Z,99.90
2018-08-03T04:40:08.462Z,99.90
2018-08-03T04:42:36.734Z,99.90
2018-08-03T04:45:05.153Z,99.90
2018-08-03T04:47:33.314Z,99.90
2018-08-03T04:50:01.569Z,99.90
2018-08-03T04:52:29.742Z,99.90
2018-08-03T04:54:57.926Z,99.90
2018-08-03T04:57:26.166Z,99.90
2018-08-03T04:59:54.341Z,99.90
2018-08-03T05:02:22.493Z,99.90
2018-08-03T05:04:50.823Z,99.90
2018-08-03T05:07:19.401Z,99.90
2018-08-03T05:09:47.574Z,99.90
2018-08-03T05:12:15.770Z,99.90
2018-08-03T05:14:44.125Z,99.90
2018-08-03T05:17:12.300Z,99.90
2018-08-03T05:19:40.502Z,99.90
2018-08-03T05:22:08.693Z,99.90
2018-08-03T05:24:36.915Z,99.90
2018-08-03T05:27:05.392Z,99.90
2018-08-03T05:29:33.593Z,99.90
2018-08-03T05:32:01.815Z,99.90
2018-08-03T05:34:32.202Z,99.90
2018-08-03T05:37:00.389Z,99.90
2018-08-03T05:39:28.574Z,99.90
2018-08-03T05:41:56.804Z,99.90
2018-08-03T05:44:25.013Z,99.90
2018-08-03T05:46:53.175Z,99.90
2018-08-03T05:49:21.977Z,99.90
2018-08-03T05:51:50.159Z,99.90
2018-08-03T05:54:18.374Z,99.90
2018-08-03T05:56:46.566Z,99.90
2018-08-03T05:59:14.792Z,99.90
2018-08-03T06:01:43.062Z,99.90
2018-08-03T06:04:13.231Z,99.90
2018-08-03T06:06:41.719Z,99.90
2018-08-03T06:09:11.061Z,99.90
2018-08-03T06:11:39.293Z,99.90
2018-08-03T06:14:08.337Z,99.90
2018-08-03T06:16:36.802Z,99.90
2018-08-03T06:19:06.134Z,99.90
2018-08-03T06:21:34.354Z,99.90
2018-08-03T06:24:02.501Z,99.90
2018-08-03T06:26:30.647Z,99.90
2018-08-03T06:28:58.881Z,99.90
2018-08-03T06:31:27.138Z,99.90
2018-08-03T06:33:56.070Z,99.90
2018-08-03T06:36:24.855Z,99.90
2018-08-03T06:38:53.086Z,99.90
2018-08-03T06:41:21.261Z,99.90
2018-08-03T06:43:49.499Z,99.90
2018-08-03T06:46:17.778Z,99.90
2018-08-03T06:48:45.972Z,99.90
2018-08-03T06:51:14.149Z,99.90
2018-08-03T06:53:42.368Z,99.90
2018-08-03T06:56:11.137Z,99.90
2018-08-03T06:58:39.351Z,99.90
2018-08-03T07:01:07.741Z,99.90
2018-08-03T07:03:35.981Z,99.90
2018-08-03T07:06:04.142Z,99.90
2018-08-03T07:08:33.942Z,99.90
2018-08-03T07:11:02.086Z,99.90
2018-08-03T07:13:30.285Z,99.90
2018-08-03T07:15:58.457Z,99.90
2018-08-03T07:18:26.658Z,99.90
2018-08-03T07:20:55.249Z,99.90
2018-08-03T07:23:24.077Z,99.90
2018-08-03T07:25:52.566Z,99.90
2018-08-03T07:28:20.769Z,99.90
2018-08-03T07:30:49.014Z,99.90
2018-08-03T07:33:17.177Z,99.90
2018-08-03T07:35:45.561Z,99.90
2018-08-03T07:38:13.852Z,99.90
2018-08-03T07:40:42.046Z,99.90
2018-08-03T07:43:11.064Z,99.90
2018-08-03T07:45:39.195Z,99.60
2018-08-03T07:48:07.486Z,99.90
2018-08-03T07:50:36.054Z,99.40
2018-08-03T07:53:04.217Z,98.40
2018-08-03T07:55:32.406Z,98.20
2018-08-03T07:58:00.642Z,97.90
2018-08-03T08:00:28.808Z,96.90
2018-08-03T08:02:56.981Z,97.30
2018-08-03T08:05:25.198Z,97.90
2018-08-03T08:07:53.679Z,97.80
2018-08-03T08:10:21.838Z,97.50
2018-08-03T08:12:50.553Z,96.20
2018-08-03T08:15:18.753Z,96.70
2018-08-03T08:17:46.914Z,95.90
2018-08-03T08:20:15.650Z,96.60
2018-08-03T08:22:43.830Z,95.60
2018-08-03T08:25:11.990Z,94.60
2018-08-03T08:27:40.173Z,94.20
2018-08-03T08:30:08.746Z,93.80
2018-08-03T08:32:36.927Z,93.10
2018-08-03T08:35:05.509Z,92.50
2018-08-03T08:37:33.673Z,91.50
2018-08-03T08:40:01.849Z,91.00
2018-08-03T08:42:30.046Z,91.90
2018-08-03T08:44:58.277Z,91.40
2018-08-03T08:47:26.985Z,92.10
2018-08-03T08:49:56.410Z,92.60
2018-08-03T08:52:24.836Z,92.40
2018-08-03T08:54:53.607Z,92.00
2018-08-03T08:57:21.726Z,91.60
2018-08-03T08:59:49.955Z,91.70
2018-08-03T09:02:18.291Z,91.10
2018-08-03T09:04:46.970Z,91.90
2018-08-03T09:07:17.559Z,93.60
2018-08-03T09:09:45.699Z,91.20
2018-08-03T09:12:13.914Z,90.00
2018-08-03T09:14:42.093Z,90.10
2018-08-03T09:17:12.406Z,89.30
2018-08-03T09:19:40.593Z,89.50
2018-08-03T09:22:08.854Z,90.00
2018-08-03T09:24:37.040Z,87.80
2018-08-03T09:27:05.376Z,87.00
2018-08-03T09:29:33.591Z,86.90
2018-08-03T09:32:01.786Z,84.40
2018-08-03T09:34:30.012Z,84.80
2018-08-03T09:36:58.216Z,85.40
2018-08-03T09:39:26.453Z,84.80
2018-08-03T09:41:54.648Z,85.00
2018-08-03T09:44:23.359Z,85.10
2018-08-03T09:46:51.510Z,83.40
2018-08-03T09:49:19.724Z,81.20
2018-08-03T09:51:48.757Z,80.10
2018-08-03T09:54:17.442Z,80.40
2018-08-03T09:56:45.709Z,79.70
2018-08-03T09:59:13.862Z,80.50
2018-08-03T10:01:42.145Z,81.50
2018-08-03T10:04:10.299Z,79.80
2018-08-03T10:06:38.742Z,79.50
2018-08-03T10:09:07.650Z,78.60
2018-08-03T10:11:35.901Z,78.50
2018-08-03T10:14:04.849Z,76.50
2018-08-03T10:16:33.014Z,77.20
2018-08-03T10:19:01.238Z,76.80
2018-08-03T10:21:29.513Z,76.60
2018-08-03T10:23:57.734Z,76.00
2018-08-03T10:26:26.028Z,75.40
2018-08-03T10:28:54.507Z,73.50
2018-08-03T10:31:22.721Z,73.50
2018-08-03T10:33:51.142Z,75.20
2018-08-03T10:36:19.402Z,75.40
2018-08-03T10:38:47.590Z,71.90
2018-08-03T10:41:15.751Z,70.70
2018-08-03T10:43:44.058Z,70.50
2018-08-03T10:46:13.254Z,69.10
2018-08-03T10:48:41.470Z,69.50
2018-08-03T10:51:09.672Z,70.90
2018-08-03T10:53:37.834Z,70.90
2018-08-03T10:56:06.120Z,70.70
2018-08-03T10:58:34.392Z,68.80
2018-08-03T11:01:02.547Z,71.50
2018-08-03T11:03:31.538Z,71.00
2018-08-03T11:05:59.740Z,69.90
2018-08-03T11:10:55.843Z,67.90
2018-08-03T11:13:24.018Z,67.80
2018-08-03T11:15:53.488Z,68.70
2018-08-03T11:18:21.730Z,70.50
2018-08-03T11:20:49.924Z,68.90
2018-08-03T11:23:18.190Z,67.80
2018-08-03T11:25:46.449Z,68.20
2018-08-03T11:28:14.660Z,67.40
2018-08-03T11:30:42.830Z,65.80
2018-08-03T11:33:11.050Z,64.70
2018-08-03T11:35:39.265Z,64.60
2018-08-03T11:38:07.405Z,65.90
2018-08-03T11:40:35.622Z,67.30
2018-08-03T11:43:03.828Z,66.40
2018-08-03T11:45:32.099Z,65.90
2018-08-03T11:48:00.303Z,66.30
2018-08-03T11:50:28.517Z,65.50
2018-08-03T11:52:56.739Z,64.70
2018-08-03T11:55:25.026Z,65.00
2018-08-03T11:57:53.198Z,64.40
2018-08-03T12:00:21.430Z,64.80
2018-08-03T12:02:49.630Z,64.80
2018-08-03T12:05:17.801Z,65.20
2018-08-03T12:07:45.979Z,65.20
2018-08-03T12:10:14.189Z,64.10
2018-08-03T12:12:42.400Z,64.10
2018-08-03T12:15:10.597Z,63.60
2018-08-03T12:17:39.218Z,64.70
2018-08-03T12:20:07.410Z,64.60
2018-08-03T12:25:04.442Z,66.00
2018-08-03T12:27:32.641Z,65.40
2018-08-03T12:30:00.897Z,65.00
2018-08-03T12:32:30.194Z,65.00
2018-08-03T12:34:58.414Z,64.50
2018-08-03T12:37:26.613Z,62.10
2018-08-03T12:39:55.128Z,62.60
2018-08-03T12:42:23.907Z,63.40
2018-08-03T12:44:52.162Z,62.70
2018-08-03T12:47:20.381Z,63.30
2018-08-03T12:52:17.678Z,62.90
2018-08-03T12:54:45.922Z,61.80
2018-08-03T12:57:14.170Z,62.40
2018-08-03T12:59:42.439Z,62.70
2018-08-03T13:02:10.631Z,62.40
2018-08-03T13:04:38.882Z,61.20
2018-08-03T13:07:07.647Z,61.30
2018-08-03T13:09:35.824Z,62.00
2018-08-03T13:12:04.023Z,61.50
2018-08-03T13:14:32.651Z,61.50
2018-08-03T13:17:00.844Z,61.40
2018-08-03T13:19:29.054Z,61.00
2018-08-03T13:21:57.269Z,60.00
2018-08-03T13:24:25.526Z,60.20
2018-08-03T13:26:53.779Z,61.80
2018-08-03T13:29:22.082Z,61.00
2018-08-03T13:31:50.242Z,60.10
2018-08-03T13:34:18.461Z,60.70
2018-08-03T13:36:46.670Z,59.30
2018-08-03T13:39:14.890Z,59.30
2018-08-03T13:41:43.099Z,60.20
2018-08-03T13:44:11.288Z,59.50
2018-08-03T13:46:39.497Z,57.70
2018-08-03T13:49:07.724Z,57.20
2018-08-03T13:51:35.865Z,57.10
2018-08-03T13:54:04.341Z,56.80
2018-08-03T13:56:32.471Z,56.40
2018-08-03T13:59:00.713Z,55.80
2018-08-03T14:01:36.951Z,55.20
2018-08-03T14:04:05.376Z,54.80
2018-08-03T14:06:33.518Z,55.00
2018-08-03T14:09:01.750Z,55.40
2018-08-03T14:11:29.994Z,54.70
2018-08-03T14:13:58.178Z,54.50
2018-08-03T14:16:26.340Z,54.20
2018-08-03T14:18:54.539Z,53.50
2018-08-03T14:21:22.713Z,53.80
2018-08-03T14:23:50.869Z,52.30
2018-08-03T14:26:19.156Z,51.50
2018-08-03T14:28:47.362Z,51.10
2018-08-03T14:31:15.609Z,51.00
2018-08-03T14:33:43.786Z,52.00
2018-08-03T14:36:12.017Z,51.90
2018-08-03T14:38:41.671Z,53.10
2018-08-03T14:41:09.843Z,53.10
2018-08-03T14:43:38.079Z,54.00
2018-08-03T14:46:06.660Z,53.20
2018-08-03T14:48:34.885Z,52.10
2018-08-03T14:51:03.065Z,54.30
2018-08-03T14:53:31.258Z,55.80
2018-08-03T14:55:59.477Z,57.00
2018-08-03T14:58:27.711Z,57.90
2018-08-03T15:00:55.903Z,58.20
2018-08-03T15:03:24.130Z,58.70
2018-08-03T15:05:52.356Z,58.50
2018-08-03T15:08:20.514Z,58.70
2018-08-03T15:10:48.698Z,58.40
2018-08-03T15:13:17.442Z,58.40
2018-08-03T15:15:45.920Z,58.70
2018-08-03T15:18:14.096Z,57.10
2018-08-03T15:20:42.306Z,55.50
2018-08-03T15:23:10.502Z,53.30
2018-08-03T15:25:38.637Z,52.20
2018-08-03T15:28:06.824Z,51.60
2018-08-03T15:30:35.001Z,52.50
2018-08-03T15:33:03.297Z,52.50
2018-08-03T15:35:31.510Z,52.30
2018-08-03T15:37:59.691Z,53.60
2018-08-03T15:40:27.861Z,54.50
2018-08-03T17:08:34.593Z,55.60
2018-08-03T17:11:02.770Z,55.40
2018-08-03T17:13:30.997Z,55.60
2018-08-03T17:15:59.238Z,55.30
2018-08-03T17:18:27.429Z,55.00
2018-08-03T17:20:55.679Z,55.20
2018-08-03T17:23:23.868Z,56.00
2018-08-03T17:25:52.363Z,56.40
2018-08-03T17:28:20.593Z,56.60
2018-08-03T17:30:48.850Z,56.50
2018-08-03T17:33:17.044Z,56.90
2018-08-03T17:35:45.620Z,57.40
2018-08-03T17:38:13.814Z,58.10
2018-08-03T17:40:41.990Z,57.70
2018-08-03T17:43:10.238Z,58.80
2018-08-03T17:45:38.705Z,58.40
2018-08-03T17:48:07.169Z,59.60
2018-08-03T17:50:35.411Z,59.40
2018-08-03T17:53:03.568Z,59.80
2018-08-03T17:55:34.992Z,59.50
2018-08-03T17:58:03.360Z,60.20
2018-08-03T18:00:31.597Z,60.00
2018-08-03T18:02:59.853Z,60.70
2018-08-03T18:05:28.054Z,61.00
2018-08-03T18:07:56.279Z,61.70
2018-08-03T18:10:24.435Z,61.30
2018-08-03T18:12:52.649Z,62.10
2018-08-03T18:15:20.848Z,62.00
2018-08-03T18:17:49.005Z,62.50
2018-08-03T18:20:17.214Z,63.10
2018-08-03T18:22:45.427Z,64.40
2018-08-03T18:25:14.494Z,64.10
2018-08-03T18:27:42.732Z,65.00
2018-08-03T18:30:10.906Z,66.00
2018-08-03T18:32:39.150Z,67.20
2018-08-03T18:35:07.482Z,66.90
2018-08-03T18:37:35.754Z,67.20
2018-08-03T18:40:05.615Z,67.80
2018-08-03T18:42:33.894Z,68.20
2018-08-03T18:45:02.108Z,68.80
2018-08-03T18:47:30.405Z,69.30
2018-08-03T18:49:58.592Z,70.10
2018-08-03T18:52:26.810Z,70.90
2018-08-03T18:54:56.926Z,70.70
2018-08-03T18:59:53.049Z,71.80
2018-08-03T19:02:21.271Z,72.80
2018-08-03T19:04:49.446Z,73.50
2018-08-03T19:07:19.463Z,72.70
2018-08-03T19:09:47.768Z,72.80
2018-08-03T19:12:16.021Z,75.80
2018-08-03T19:14:44.218Z,77.40
2018-08-03T19:17:12.607Z,77.70
2018-08-03T19:19:40.844Z,77.20
2018-08-03T19:22:09.060Z,78.80
2018-08-03T19:24:37.281Z,78.80
2018-08-03T19:27:05.449Z,78.80
2018-08-03T19:29:33.649Z,79.00
2018-08-03T19:32:01.883Z,79.30
2018-08-03T19:34:30.109Z,79.50
2018-08-03T19:36:58.288Z,81.30
2018-08-03T19:39:26.467Z,82.90
2018-08-03T19:41:55.003Z,83.90
2018-08-03T19:46:51.170Z,84.80
2018-08-03T19:49:19.364Z,86.20
2018-08-03T19:51:47.596Z,86.90
2018-08-03T19:54:16.511Z,87.00
2018-08-03T19:56:45.545Z,87.30
2018-08-03T19:59:13.755Z,89.00
2018-08-03T20:01:41.970Z,89.30
2018-08-03T20:04:10.206Z,89.40
2018-08-03T20:06:38.771Z,89.60
2018-08-03T20:09:09.894Z,90.30
2018-08-03T20:11:38.221Z,91.00
2018-08-03T20:14:06.405Z,91.00
2018-08-03T20:16:34.613Z,91.10
2018-08-03T20:19:02.800Z,91.00
2018-08-03T20:21:31.720Z,90.80
2018-08-03T20:23:59.977Z,90.50
2018-08-03T20:26:28.182Z,91.00
2018-08-03T20:28:56.372Z,91.50
2018-08-03T20:31:24.585Z,91.00
2018-08-03T20:33:52.821Z,90.90
2018-08-03T20:36:21.166Z,90.90
2018-08-03T20:38:49.351Z,91.50
2018-08-03T20:43:45.517Z,92.20
2018-08-03T20:46:13.730Z,91.80
2018-08-03T20:48:41.906Z,91.80
2018-08-03T20:51:10.073Z,91.60
2018-08-03T20:53:38.228Z,92.00
2018-08-03T20:56:06.418Z,92.00
2018-08-03T20:58:34.626Z,92.40
2018-08-03T21:01:02.795Z,92.60
2018-08-03T21:03:31.353Z,92.90
2018-08-03T21:05:59.550Z,93.00
2018-08-03T21:08:27.771Z,93.30
2018-08-03T21:10:55.964Z,93.10
2018-08-03T21:13:24.358Z,93.20
2018-08-03T21:15:52.606Z,92.90
2018-08-03T21:18:20.812Z,93.40
2018-08-03T21:20:49.026Z,93.40
2018-08-03T21:23:17.237Z,93.20
2018-08-03T21:25:45.457Z,92.60
2018-08-03T21:28:13.684Z,92.40
2018-08-03T21:30:41.855Z,92.60
2018-08-03T21:33:10.410Z,92.90
2018-08-03T21:35:38.671Z,92.20
2018-08-03T21:38:06.885Z,92.30
2018-08-03T21:40:35.074Z,92.10
2018-08-03T21:43:03.333Z,92.00
2018-08-03T21:45:31.514Z,92.00
2018-08-03T21:47:59.806Z,92.40
2018-08-03T21:50:28.051Z,92.50
2018-08-03T21:52:56.221Z,92.20
2018-08-03T21:55:25.397Z,92.20
2018-08-03T21:57:53.541Z,91.60
2018-08-03T22:00:22.784Z,91.50
2018-08-03T22:02:50.967Z,90.80
2018-08-03T22:07:47.898Z,90.60
2018-08-03T22:10:16.212Z,90.20
2018-08-03T22:12:44.398Z,90.10
2018-08-03T22:15:12.598Z,90.10
2018-08-03T22:17:40.853Z,89.90
2018-08-03T22:20:09.369Z,90.00
2018-08-03T22:22:38.419Z,90.00
2018-08-03T22:25:06.641Z,90.20
2018-08-03T22:27:35.681Z,90.20
2018-08-03T22:30:04.514Z,90.90
2018-08-03T22:32:32.759Z,90.60
2018-08-03T22:35:02.735Z,90.60
2018-08-03T22:37:30.929Z,90.40
2018-08-03T22:39:59.129Z,90.60
2018-08-03T22:42:30.785Z,90.80
2018-08-03T22:44:59.013Z,90.40
2018-08-03T22:47:27.184Z,90.30
2018-08-03T22:49:55.356Z,90.30
2018-08-03T22:52:23.564Z,90.20
2018-08-03T22:54:52.665Z,90.50
2018-08-03T22:57:24.225Z,90.40
2018-08-03T22:59:52.452Z,90.40
2018-08-03T23:02:20.957Z,90.50
2018-08-03T23:04:49.153Z,90.70
2018-08-03T23:07:17.385Z,90.60
2018-08-03T23:09:45.569Z,90.70
2018-08-03T23:12:13.774Z,90.70
2018-08-03T23:14:41.951Z,91.00
2018-08-03T23:17:10.114Z,90.90
2018-08-03T23:19:38.333Z,91.10
2018-08-03T23:22:07.095Z,91.20
2018-08-03T23:24:35.293Z,91.20
2018-08-03T23:27:03.552Z,91.50
2018-08-03T23:29:31.741Z,92.20
2018-08-03T23:31:59.879Z,92.40
2018-08-03T23:34:28.061Z,92.50
2018-08-03T23:36:56.258Z,92.80
2018-08-03T23:39:24.437Z,93.00
2018-08-03T23:41:52.602Z,93.30
2018-08-03T23:44:20.867Z,93.80
2018-08-03T23:46:49.057Z,94.10
2018-08-03T23:49:17.266Z,94.70
2018-08-03T23:51:45.507Z,95.40
2018-08-03T23:54:13.693Z,95.90
2018-08-03T23:56:41.882Z,95.90
2018-08-03T23:59:10.081Z,96.00
